Time;durP1;ratioP1;P1;durP2;ratioP2;P2;SDS_P1;SDS_P2;PMS_P1;PMS_P2;Temp;Humidity;BMP_temperature;BMP_pressure;BME280_temperature;BME280_humidity;BME280_pressure;Samples;Min_cycle;Max_cycle;Signal;HPM_P1;HPM_P2
2023/12/22 00:02:52;;;;;;;6.40;3.20;;;;;;;5.74;87.45;96611.80;130827;1256;107555;-83
2023/12/22 00:05:58;;;;;;;9.00;2.70;;;;;;;5.70;86.74;96609.42;130792;1260;108681;-83
2023/12/22 00:09:03;;;;;;;5.70;2.30;;;;;;;5.63;86.14;96603.15;130792;1257;107144;-83
2023/12/22 00:12:10;;;;;;;8.20;1.80;;;;;;;5.55;85.99;96600.59;130793;1260;107748;-83
2023/12/22 00:15:15;;;;;;;6.60;1.80;;;;;;;5.45;85.95;96594.09;130806;1262;108369;-83
2023/12/22 00:18:21;;;;;;;6.60;2.10;;;;;;;5.40;84.31;96597.61;130825;1260;107892;-83
2023/12/22 00:21:27;;;;;;;5.70;1.80;;;;;;;5.36;84.28;96593.71;130822;1263;107570;-83
2023/12/22 00:24:46;;;;;;;14.60;3.70;;;;;;;5.35;83.97;96603.28;130849;1260;108353;-82
2023/12/22 00:27:52;;;;;;;10.50;2.90;;;;;;;5.28;83.67;96601.67;130816;1256;108268;-83
2023/12/22 00:30:58;;;;;;;11.60;3.40;;;;;;;5.24;83.36;96601.73;130833;1261;106591;-83
2023/12/22 00:34:03;;;;;;;10.30;2.90;;;;;;;5.17;82.31;96604.90;130913;1260;108719;-83
2023/12/22 00:37:09;;;;;;;13.00;3.70;;;;;;;5.10;81.79;96604.86;130806;1261;108631;-83
2023/12/22 00:40:15;;;;;;;12.50;3.90;;;;;;;5.05;83.22;96607.73;130825;1260;107862;-83
2023/12/22 00:43:20;;;;;;;11.60;3.90;;;;;;;4.99;83.43;96607.27;130827;1262;107644;-83
2023/12/22 00:46:26;;;;;;;9.80;3.80;;;;;;;4.91;82.74;96610.33;130888;1260;107690;-83
2023/12/22 00:49:31;;;;;;;10.00;2.90;;;;;;;4.83;82.85;96615.17;130816;1262;107184;-83
2023/12/22 00:52:37;;;;;;;9.00;2.60;;;;;;;4.77;83.13;96614.10;130775;1256;107626;-83
2023/12/22 00:55:42;;;;;;;9.50;3.20;;;;;;;4.75;83.32;96617.23;130854;1257;108704;-83
2023/12/22 00:58:48;;;;;;;10.30;2.80;;;;;;;4.75;83.15;96624.02;130731;1262;107844;-83
2023/12/22 01:01:54;;;;;;;10.60;2.80;;;;;;;4.77;82.88;96620.48;130822;1262;107592;-83
2023/12/22 01:04:59;;;;;;;8.40;2.80;;;;;;;4.78;83.01;96624.95;130905;1257;107570;-83
2023/12/22 01:08:06;;;;;;;9.80;2.90;;;;;;;4.80;82.73;96633.55;130835;1257;108369;-83
2023/12/22 01:11:12;;;;;;;8.90;2.50;;;;;;;4.84;83.35;96632.30;130863;1257;105542;-84
2023/12/22 01:14:17;;;;;;;7.30;2.10;;;;;;;4.88;83.26;96632.17;130860;1262;108725;-83
2023/12/22 01:17:23;;;;;;;9.70;2.90;;;;;;;4.89;82.92;96625.17;130899;1260;108328;-85
2023/12/22 01:20:29;;;;;;;12.40;3.50;;;;;;;4.86;83.17;96626.72;130828;1257;106729;-83
2023/12/22 01:23:34;;;;;;;11.00;3.90;;;;;;;4.82;83.10;96617.95;130816;1256;106707;-83
2023/12/22 01:26:40;;;;;;;10.70;2.60;;;;;;;4.77;83.03;96624.86;130840;1263;106979;-83
2023/12/22 01:29:45;;;;;;;10.30;2.80;;;;;;;4.74;83.24;96618.54;130807;1258;108363;-83
2023/12/22 01:32:51;;;;;;;11.20;3.30;;;;;;;4.74;83.43;96616.30;130867;1263;108443;-83
2023/12/22 01:35:56;;;;;;;11.80;3.60;;;;;;;4.74;83.10;96617.11;130862;1257;108710;-84
2023/12/22 01:39:02;;;;;;;12.10;2.70;;;;;;;4.72;82.87;96611.91;130902;1262;105852;-84
2023/12/22 01:42:08;;;;;;;12.90;3.60;;;;;;;4.68;82.97;96613.77;130947;1267;107065;-84
2023/12/22 01:45:14;;;;;;;8.40;2.70;;;;;;;4.66;83.19;96615.05;130917;1256;107803;-84
2023/12/22 01:48:21;;;;;;;12.00;3.10;;;;;;;4.62;82.92;96620.13;130978;1260;107707;-84
2023/12/22 01:51:29;;;;;;;12.00;3.40;;;;;;;4.58;83.16;96622.09;130743;1258;107463;-84
2023/12/22 01:54:35;;;;;;;11.80;3.80;;;;;;;4.54;82.68;96614.69;130820;1260;108684;-85
2023/12/22 01:57:41;;;;;;;8.20;2.50;;;;;;;4.54;82.95;96613.84;130751;1262;108596;-84
2023/12/22 02:00:47;;;;;;;6.90;2.90;;;;;;;4.58;82.83;96618.06;130772;1263;108628;-85
2023/12/22 02:03:54;;;;;;;7.50;2.40;;;;;;;4.63;82.46;96619.08;130884;1260;106798;-82
2023/12/22 02:07:02;;;;;;;8.30;2.20;;;;;;;4.69;82.63;96617.40;130894;1257;108858;-85
2023/12/22 02:10:09;;;;;;;7.20;2.30;;;;;;;4.72;82.16;96614.35;130942;1262;107516;-85
2023/12/22 02:13:15;;;;;;;8.10;3.20;;;;;;;4.74;82.15;96605.33;130861;1260;108677;-84
2023/12/22 02:16:27;;;;;;;8.50;2.50;;;;;;;4.72;81.74;96611.75;130906;1257;106822;-83
2023/12/22 02:19:43;;;;;;;10.30;3.10;;;;;;;4.68;82.33;96614.31;130844;1263;108677;-83
2023/12/22 02:22:53;;;;;;;6.60;2.60;;;;;;;4.62;81.74;96610.59;130869;1258;108529;-84
2023/12/22 02:26:07;;;;;;;9.10;2.40;;;;;;;4.54;81.66;96606.45;130766;1263;107852;-84
2023/12/22 02:29:15;;;;;;;4.70;1.90;;;;;;;4.42;81.31;96611.98;130779;1260;107176;-84
2023/12/22 02:32:28;;;;;;;8.50;2.40;;;;;;;4.36;81.78;96615.48;130729;1270;108646;-83
2023/12/22 02:35:37;;;;;;;6.20;2.10;;;;;;;4.37;81.68;96613.15;130834;1265;107339;-84
2023/12/22 02:38:45;;;;;;;7.20;1.90;;;;;;;4.40;81.30;96603.12;130866;1260;108461;-86
2023/12/22 02:41:51;;;;;;;6.50;2.10;;;;;;;4.47;81.39;96600.64;130882;1270;106480;-83
2023/12/22 02:44:56;;;;;;;10.50;2.50;;;;;;;4.53;81.42;96597.42;130826;1260;108642;-84
2023/12/22 02:48:05;;;;;;;6.90;1.90;;;;;;;4.56;81.52;96598.36;130863;1258;108494;-83
2023/12/22 02:51:11;;;;;;;10.40;2.40;;;;;;;4.61;80.89;96594.98;130785;1269;108538;-84
2023/12/22 02:54:16;;;;;;;8.60;2.90;;;;;;;4.61;80.82;96596.20;130841;1260;108311;-83
2023/12/22 02:57:22;;;;;;;8.70;2.40;;;;;;;4.59;80.42;96599.54;130849;1276;106527;-83
2023/12/22 03:00:28;;;;;;;9.30;2.00;;;;;;;4.57;79.90;96604.78;130732;1260;107455;-84
2023/12/22 03:03:33;;;;;;;8.00;2.20;;;;;;;4.57;80.21;96608.36;130822;1267;106631;-84
2023/12/22 03:06:39;;;;;;;7.90;2.00;;;;;;;4.56;79.95;96604.50;130859;1260;108692;-83
2023/12/22 03:09:45;;;;;;;5.70;2.50;;;;;;;4.60;80.45;96602.77;130935;1257;108176;-84
2023/12/22 03:12:51;;;;;;;9.20;2.40;;;;;;;4.66;79.98;96592.51;131021;1261;108641;-83
2023/12/22 03:15:57;;;;;;;8.80;2.90;;;;;;;4.70;79.96;96589.77;131048;1260;107695;-84
2023/12/22 03:19:05;;;;;;;6.90;2.10;;;;;;;4.72;79.84;96589.73;131135;1261;107472;-84
2023/12/22 03:22:11;;;;;;;11.50;2.40;;;;;;;4.73;79.29;96593.55;130804;1257;108472;-83
2023/12/22 03:25:17;;;;;;;13.10;2.70;;;;;;;4.68;78.94;96590.38;130764;1257;106424;-83
2023/12/22 03:28:22;;;;;;;8.80;3.10;;;;;;;4.68;79.49;96593.84;130924;1259;108778;-83
2023/12/22 03:31:28;;;;;;;9.40;2.20;;;;;;;4.65;78.94;96594.73;130678;1269;108833;-85
2023/12/22 03:34:33;;;;;;;9.80;2.60;;;;;;;4.59;78.51;96603.11;130996;1261;107813;-83
2023/12/22 03:37:39;;;;;;;9.60;2.50;;;;;;;4.56;78.53;96616.08;131276;1267;108634;-83
2023/12/22 03:40:44;;;;;;;10.80;2.60;;;;;;;4.52;78.63;96615.27;131043;1260;107228;-83
2023/12/22 03:43:50;;;;;;;6.70;2.10;;;;;;;4.49;79.26;96623.21;130758;1260;107033;-84
2023/12/22 03:46:55;;;;;;;10.30;2.10;;;;;;;4.46;78.87;96630.49;130589;1260;106686;-84
2023/12/22 03:50:01;;;;;;;7.20;2.10;;;;;;;4.48;78.33;96637.36;130621;1260;107813;-85
2023/12/22 03:53:07;;;;;;;7.20;1.90;;;;;;;4.49;78.68;96630.46;130628;1257;108360;-84
2023/12/22 03:56:12;;;;;;;7.20;2.20;;;;;;;4.47;78.69;96638.98;130757;1257;106919;-85
2023/12/22 03:59:19;;;;;;;7.80;2.20;;;;;;;4.48;79.37;96637.52;130807;1260;108685;-84
2023/12/22 04:02:24;;;;;;;8.10;2.20;;;;;;;4.49;79.28;96642.12;130834;1257;108553;-84
2023/12/22 04:05:30;;;;;;;7.50;2.30;;;;;;;4.43;78.82;96637.03;130769;1257;106662;-84
2023/12/22 04:08:35;;;;;;;7.60;2.80;;;;;;;4.38;79.36;96646.09;130858;1261;106962;-84
2023/12/22 04:11:41;;;;;;;9.10;2.60;;;;;;;4.28;79.67;96637.27;130821;1260;106711;-84
2023/12/22 04:14:46;;;;;;;8.10;2.70;;;;;;;4.18;80.21;96638.08;130792;1257;107513;-84
2023/12/22 04:17:52;;;;;;;7.30;2.10;;;;;;;4.13;80.55;96639.48;130812;1260;108798;-84
2023/12/22 04:20:57;;;;;;;8.80;3.00;;;;;;;4.12;80.72;96635.23;130761;1260;108705;-84
2023/12/22 04:24:04;;;;;;;9.20;3.10;;;;;;;4.15;80.83;96637.59;130752;1260;107031;-84
2023/12/22 04:27:10;;;;;;;11.20;2.80;;;;;;;4.12;81.02;96644.98;130809;1257;107854;-84
2023/12/22 04:30:16;;;;;;;10.00;2.80;;;;;;;4.09;81.20;96647.12;130879;1257;108670;-84
2023/12/22 04:33:21;;;;;;;9.90;2.70;;;;;;;4.08;81.11;96649.79;130791;1257;108362;-84
2023/12/22 04:36:27;;;;;;;9.00;3.30;;;;;;;4.06;81.04;96649.79;130823;1260;106888;-84
2023/12/22 04:39:33;;;;;;;12.10;2.30;;;;;;;4.03;81.17;96656.16;130791;1261;108309;-84
2023/12/22 04:42:38;;;;;;;7.00;2.20;;;;;;;4.01;81.47;96653.51;130798;1260;106601;-83
2023/12/22 04:45:44;;;;;;;7.30;3.10;;;;;;;3.99;81.50;96651.85;130793;1260;107744;-83
2023/12/22 04:48:49;;;;;;;7.20;2.10;;;;;;;4.00;81.51;96651.89;130818;1260;108714;-85
2023/12/22 04:51:55;;;;;;;9.20;2.30;;;;;;;4.05;81.27;96659.52;130842;1257;107101;-83
2023/12/22 04:55:00;;;;;;;13.00;2.90;;;;;;;4.05;80.85;96660.02;130858;1260;108732;-83
2023/12/22 04:58:06;;;;;;;12.50;2.50;;;;;;;4.07;80.66;96660.83;130847;1260;108593;-85
2023/12/22 05:01:12;;;;;;;9.30;2.90;;;;;;;4.06;80.76;96655.50;130844;1257;108589;-84
2023/12/22 05:04:17;;;;;;;12.10;2.70;;;;;;;4.05;80.91;96654.38;130821;1257;108660;-82
2023/12/22 05:07:23;;;;;;;8.60;2.40;;;;;;;4.02;80.44;96666.35;130846;1258;108713;-84
2023/12/22 05:10:29;;;;;;;11.70;2.90;;;;;;;4.00;79.83;96664.22;130787;1260;106545;-83
2023/12/22 05:13:34;;;;;;;12.30;3.30;;;;;;;3.97;79.65;96660.05;130858;1258;107712;-82
2023/12/22 05:16:40;;;;;;;8.20;2.10;;;;;;;3.92;79.28;96659.30;130809;1260;108634;-82
2023/12/22 05:19:46;;;;;;;7.50;2.10;;;;;;;3.91;78.97;96655.27;130843;1260;108470;-83
2023/12/22 05:22:51;;;;;;;11.80;2.60;;;;;;;3.95;78.26;96652.48;130852;1269;107787;-82
2023/12/22 05:25:56;;;;;;;7.10;2.40;;;;;;;4.01;77.45;96658.59;130878;1256;108688;-81
2023/12/22 05:29:02;;;;;;;10.90;2.90;;;;;;;4.04;76.91;96659.45;130794;1260;107006;-87
2023/12/22 05:32:09;;;;;;;9.30;2.60;;;;;;;4.06;77.40;96667.89;130816;1268;106980;-87
2023/12/22 05:35:17;;;;;;;7.90;2.30;;;;;;;4.11;77.08;96672.77;130920;1256;107250;-87
2023/12/22 05:38:22;;;;;;;9.60;2.40;;;;;;;4.13;76.10;96670.55;130811;1260;106433;-89
2023/12/22 05:41:28;;;;;;;9.10;2.00;;;;;;;4.13;75.38;96676.77;130907;1266;108699;-88
2023/12/22 05:44:34;;;;;;;10.90;2.40;;;;;;;4.10;74.54;96676.18;130822;1258;107721;-86
2023/12/22 05:47:40;;;;;;;10.10;2.30;;;;;;;4.11;75.64;96677.36;130883;1260;108615;-86
2023/12/22 05:50:46;;;;;;;9.60;2.50;;;;;;;4.10;74.63;96677.69;132462;1258;108596;-88
2023/12/22 05:53:53;;;;;;;9.90;2.30;;;;;;;4.07;73.98;96682.95;130814;1261;107986;-87
2023/12/22 05:56:59;;;;;;;11.80;1.90;;;;;;;4.03;72.20;96691.80;130968;1256;106604;-88
2023/12/22 06:00:09;;;;;;;8.60;2.00;;;;;;;3.99;72.37;96701.65;131187;1256;107548;-90
2023/12/22 06:03:16;;;;;;;12.20;3.00;;;;;;;3.97;72.70;96700.27;130907;1260;108686;-88
2023/12/22 06:06:22;;;;;;;9.10;2.20;;;;;;;3.95;72.16;96699.66;130760;1257;107599;-88
2023/12/22 06:09:28;;;;;;;8.50;2.30;;;;;;;3.94;73.19;96699.20;130991;1260;107515;-86
2023/12/22 06:12:33;;;;;;;7.80;2.10;;;;;;;3.96;72.29;96700.82;130922;1256;107642;-86
2023/12/22 06:15:40;;;;;;;11.30;2.20;;;;;;;3.93;71.16;96705.44;130855;1260;109165;-85
2023/12/22 06:18:45;;;;;;;8.50;2.00;;;;;;;3.91;72.51;96708.20;131001;1256;108710;-85
2023/12/22 06:21:51;;;;;;;9.70;2.10;;;;;;;3.90;72.74;96717.88;130836;1260;107740;-84
2023/12/22 06:24:56;;;;;;;7.70;2.20;;;;;;;3.89;72.58;96716.75;130879;1260;108599;-85
2023/12/22 06:28:02;;;;;;;10.80;2.30;;;;;;;3.91;73.07;96721.95;130857;1258;108745;-85
2023/12/22 06:31:07;;;;;;;246.60;81.10;;;;;;;3.90;72.21;96732.21;130761;1257;106831;-84
2023/12/22 06:34:13;;;;;;;38.50;11.30;;;;;;;3.87;71.68;96729.48;130870;1258;106497;-85
2023/12/22 06:37:19;;;;;;;217.90;72.10;;;;;;;3.83;71.90;96736.40;130947;1259;110281;-85
2023/12/22 06:40:25;;;;;;;127.10;36.40;;;;;;;3.80;72.47;96746.73;130814;1260;106694;-86
2023/12/22 06:43:31;;;;;;;18.00;4.20;;;;;;;3.79;72.28;96758.70;130884;1258;107481;-86
2023/12/22 06:46:36;;;;;;;15.20;3.60;;;;;;;3.62;73.45;96786.60;130733;1271;106876;-86
2023/12/22 06:49:42;;;;;;;17.80;6.00;;;;;;;3.31;79.75;96809.88;130987;1257;108668;-88
2023/12/22 06:52:49;;;;;;;7.00;2.10;;;;;;;2.85;82.92;96807.68;130867;1256;107362;-89
2023/12/22 06:55:57;;;;;;;11.40;3.70;;;;;;;2.32;83.07;96801.63;131054;1260;107143;-86
2023/12/22 06:59:03;;;;;;;8.00;2.80;;;;;;;2.02;84.76;96796.15;131241;1256;107534;-86
2023/12/22 07:02:09;;;;;;;47.10;14.20;;;;;;;1.84;84.25;96788.12;131112;1260;108182;-86
2023/12/22 07:05:36;;;;;;;70.20;22.80;;;;;;;1.77;83.76;96792.27;131027;1261;107415;-84
2023/12/22 07:08:42;;;;;;;96.60;29.10;;;;;;;1.76;84.06;96792.21;130887;1260;108680;-84
2023/12/22 07:11:50;;;;;;;45.70;16.30;;;;;;;1.79;83.58;96800.11;131150;1258;107062;-88
2023/12/22 07:14:56;;;;;;;92.00;26.90;;;;;;;1.85;83.58;96795.04;131069;1260;107386;-86
2023/12/22 07:18:02;;;;;;;73.60;25.80;;;;;;;1.92;82.86;96790.31;131027;1256;108668;-85
2023/12/22 07:21:07;;;;;;;48.40;18.90;;;;;;;2.01;82.92;96797.17;131249;1257;108624;-86
2023/12/22 07:24:13;;;;;;;105.10;41.20;;;;;;;2.09;82.43;96805.95;132330;1256;108764;-84
2023/12/22 07:27:18;;;;;;;140.10;54.70;;;;;;;2.15;81.89;96806.97;131497;1256;106646;-85
2023/12/22 07:30:24;;;;;;;80.90;30.50;;;;;;;2.22;81.24;96809.84;130965;1257;107644;-84
2023/12/22 07:33:30;;;;;;;181.60;64.70;;;;;;;2.26;81.06;96820.55;130869;1260;108735;-84
2023/12/22 07:36:35;;;;;;;355.40;110.20;;;;;;;2.30;80.81;96826.41;131060;1257;108646;-87
2023/12/22 07:39:41;;;;;;;259.30;106.10;;;;;;;2.28;80.32;96817.48;131009;1256;106996;-85
2023/12/22 07:42:47;;;;;;;36.50;16.80;;;;;;;2.28;80.46;96823.34;130822;1256;109166;-84
2023/12/22 07:45:52;;;;;;;316.10;90.00;;;;;;;2.29;80.10;96815.51;131148;1258;106125;-84
2023/12/22 07:48:59;;;;;;;214.90;54.00;;;;;;;2.34;80.15;96817.02;130967;1256;107507;-83
2023/12/22 07:52:05;;;;;;;384.40;103.00;;;;;;;2.42;80.28;96817.80;130786;1260;107500;-86
2023/12/22 07:55:11;;;;;;;375.10;95.50;;;;;;;2.51;80.19;96825.50;130887;1256;107777;-84
2023/12/22 07:58:19;;;;;;;300.10;71.50;;;;;;;2.58;80.12;96819.94;130921;1256;108825;-88
2023/12/22 08:01:25;;;;;;;245.50;61.20;;;;;;;2.61;79.79;96817.92;130879;1260;108658;-87
2023/12/22 08:04:30;;;;;;;273.50;71.80;;;;;;;2.63;79.70;96810.49;130817;1256;107090;-88
2023/12/22 08:07:36;;;;;;;391.20;111.20;;;;;;;2.64;79.08;96810.53;130765;1256;107343;-86
2023/12/22 08:10:42;;;;;;;132.40;32.50;;;;;;;2.64;78.98;96812.52;130803;1258;107828;-85
2023/12/22 08:13:48;;;;;;;541.00;142.20;;;;;;;2.63;78.41;96806.83;130825;1260;108645;-87
2023/12/22 08:16:54;;;;;;;401.90;114.60;;;;;;;2.63;78.63;96796.67;130899;1256;108391;-85
2023/12/22 08:19:59;;;;;;;368.60;80.50;;;;;;;2.63;78.60;96801.90;131003;1256;107778;-87
2023/12/22 08:23:05;;;;;;;633.20;179.40;;;;;;;2.66;78.65;96804.88;130879;1256;107786;-85
2023/12/22 08:26:11;;;;;;;503.00;124.10;;;;;;;2.75;78.53;96808.02;130872;1256;107764;-88
2023/12/22 08:29:18;;;;;;;1100.10;387.30;;;;;;;2.89;78.15;96812.79;130920;1255;106581;-87
2023/12/22 08:32:24;;;;;;;379.20;100.90;;;;;;;3.02;77.89;96813.83;130869;1260;107265;-86
2023/12/22 08:35:30;;;;;;;244.70;68.70;;;;;;;3.11;77.52;96820.35;130863;1260;106637;-87
2023/12/22 08:38:36;;;;;;;253.00;83.10;;;;;;;3.15;77.03;96823.02;130924;1261;107842;-88
2023/12/22 08:41:44;;;;;;;162.40;83.80;;;;;;;3.21;77.52;96816.17;130922;1256;107662;-92
2023/12/22 08:44:50;;;;;;;84.10;42.60;;;;;;;3.26;77.27;96819.58;130942;1260;108629;-91
2023/12/22 08:47:56;;;;;;;48.80;19.20;;;;;;;3.31;76.95;96828.13;130885;1257;107262;-92
2023/12/22 08:51:02;;;;;;;25.60;11.00;;;;;;;3.34;76.87;96828.64;131132;1255;107058;-88
2023/12/22 08:54:08;;;;;;;15.90;7.20;;;;;;;3.37;76.79;96835.80;130812;1256;106751;-93
2023/12/22 08:57:13;;;;;;;11.40;4.40;;;;;;;3.39;76.56;96835.36;130917;1260;106587;-86
2023/12/22 09:00:20;;;;;;;255.50;96.00;;;;;;;3.40;76.33;96836.88;131276;1256;107155;-85
2023/12/22 09:03:26;;;;;;;109.50;45.30;;;;;;;3.44;76.17;96836.37;131299;1258;107833;-84
2023/12/22 09:06:33;;;;;;;94.90;44.00;;;;;;;3.51;75.82;96833.21;131338;1256;109094;-86
2023/12/22 09:09:59;;;;;;;43.70;22.90;;;;;;;3.61;75.63;96821.56;130822;1255;108753;-86
2023/12/22 09:13:08;;;;;;;27.90;13.70;;;;;;;3.80;76.52;96797.23;130988;1256;107774;-85
2023/12/22 09:16:15;;;;;;;15.40;6.00;;;;;;;3.98;76.10;96793.39;130828;1261;106613;-85
2023/12/22 09:19:21;;;;;;;14.50;5.30;;;;;;;4.10;75.38;96790.92;130925;1260;107587;-84
2023/12/22 09:22:27;;;;;;;11.60;4.80;;;;;;;4.18;75.06;96784.95;130844;1261;107341;-82
2023/12/22 09:25:39;;;;;;;9.60;4.40;;;;;;;4.25;75.02;96784.80;130874;1256;107523;-84
2023/12/22 09:28:45;;;;;;;10.50;6.10;;;;;;;4.32;75.48;96788.93;130734;1257;108595;-81
2023/12/22 09:31:51;;;;;;;81.00;33.20;;;;;;;4.37;75.12;96783.25;130749;1256;108652;-83
2023/12/22 09:34:58;;;;;;;46.70;18.00;;;;;;;4.37;75.15;96774.08;131161;1256;108453;-85
2023/12/22 09:38:05;;;;;;;264.40;106.20;;;;;;;4.37;75.20;96767.83;130970;1260;106587;-86
2023/12/22 09:41:11;;;;;;;57.60;19.80;;;;;;;4.35;75.14;96762.75;131125;1256;108410;-86
2023/12/22 09:44:20;;;;;;;197.30;74.90;;;;;;;4.31;74.21;96751.41;131207;1256;108727;-88
2023/12/22 09:47:29;;;;;;;114.60;39.10;;;;;;;4.26;73.89;96754.77;131258;1270;107067;-86
2023/12/22 09:50:35;;;;;;;165.20;56.30;;;;;;;4.26;74.41;96746.40;131115;1255;108506;-85
2023/12/22 09:53:42;;;;;;;232.50;76.80;;;;;;;4.27;73.96;96739.10;131299;1256;106413;-86
2023/12/22 09:57:06;;;;;;;91.70;28.70;;;;;;;4.28;74.29;96747.75;131230;1260;108703;-94
2023/12/22 10:00:18;;;;;;;364.70;122.80;;;;;;;4.30;73.14;96738.98;131679;1256;107819;-90
2023/12/22 10:03:25;;;;;;;275.00;84.50;;;;;;;4.30;72.40;96747.14;131375;1259;107667;-89
2023/12/22 10:06:31;;;;;;;142.40;44.20;;;;;;;4.28;72.02;96747.99;131116;1256;107530;-91
2023/12/22 10:09:37;;;;;;;224.40;76.80;;;;;;;4.28;71.98;96755.30;131323;1256;108089;-90
2023/12/22 10:12:45;;;;;;;26.40;4.10;;;;;;;4.24;71.82;96792.65;131440;1256;108756;-90
2023/12/22 10:15:51;;;;;;;6.00;1.90;;;;;;;3.54;81.36;96829.80;131102;1256;108124;-89
2023/12/22 10:19:01;;;;;;;2.10;0.80;;;;;;;2.56;84.98;96822.39;131251;1259;107494;-89
2023/12/22 10:22:06;;;;;;;25.10;7.80;;;;;;;1.89;86.54;96810.66;131034;1259;107541;-90
2023/12/22 10:25:15;;;;;;;5.90;2.40;;;;;;;1.56;88.03;96807.23;131011;1255;107728;-89
2023/12/22 10:28:24;;;;;;;12.50;5.30;;;;;;;1.44;86.83;96800.89;131166;1256;106220;-94
2023/12/22 10:31:39;;;;;;;117.70;61.70;;;;;;;1.51;86.38;96807.77;131059;1259;107569;-89
2023/12/22 10:34:45;;;;;;;21.80;14.00;;;;;;;1.70;86.64;96802.17;131093;1256;108848;-90
2023/12/22 10:37:52;;;;;;;5.10;2.90;;;;;;;1.83;86.43;96794.83;131174;1259;107797;-90
2023/12/22 10:40:58;;;;;;;6.00;1.60;;;;;;;1.96;86.09;96798.45;131291;1258;107519;-92
2023/12/22 10:44:05;;;;;;;9.40;5.30;;;;;;;2.11;86.53;96796.65;131324;1258;107564;-92
2023/12/22 10:47:11;;;;;;;7.40;5.00;;;;;;;2.24;85.53;96796.50;131581;1255;106428;-93
2023/12/22 10:50:16;;;;;;;5.40;3.10;;;;;;;2.46;85.26;96796.07;131450;1256;107565;-93
2023/12/22 10:53:24;;;;;;;4.70;3.20;;;;;;;2.64;84.62;96788.09;131455;1256;107500;-92
2023/12/22 10:56:31;;;;;;;4.80;2.50;;;;;;;2.79;84.35;96782.40;131310;1256;107642;-88
2023/12/22 10:59:39;;;;;;;6.30;2.30;;;;;;;2.89;83.99;96774.70;131000;1256;107039;-90
2023/12/22 11:02:48;;;;;;;3.90;1.60;;;;;;;3.01;83.71;96768.33;131015;1260;108856;-90
2023/12/22 11:05:59;;;;;;;5.60;2.30;;;;;;;3.13;82.96;96763.83;131099;1256;107812;-89
2023/12/22 11:09:08;;;;;;;5.00;1.90;;;;;;;3.28;82.13;96759.27;131147;1258;107369;-89
2023/12/22 11:12:15;;;;;;;8.30;4.10;;;;;;;3.33;80.72;96762.92;131310;1256;107435;-89
2023/12/22 11:15:21;;;;;;;6.90;4.70;;;;;;;3.32;80.53;96752.73;131041;1257;107707;-88
2023/12/22 11:18:29;;;;;;;6.40;3.40;;;;;;;3.33;80.50;96763.64;131062;1256;108139;-90
2023/12/22 11:21:36;;;;;;;6.00;2.80;;;;;;;3.28;79.93;96764.17;131311;1256;107562;-89
2023/12/22 11:24:44;;;;;;;5.50;2.10;;;;;;;3.21;79.65;96756.39;131161;1259;107610;-88
2023/12/22 11:27:52;;;;;;;4.80;2.10;;;;;;;3.20;79.29;96746.63;131106;1256;107137;-88
2023/12/22 11:30:59;;;;;;;3.80;1.80;;;;;;;3.24;79.49;96741.70;131116;1258;106235;-86
2023/12/22 11:34:08;;;;;;;5.30;2.50;;;;;;;3.31;78.74;96738.98;131146;1259;107506;-87
2023/12/22 11:37:16;;;;;;;134.70;51.60;;;;;;;3.33;77.73;96728.10;131247;1258;382246;-84
2023/12/22 11:40:22;;;;;;;307.60;101.30;;;;;;;3.35;78.56;96730.98;131483;1256;107067;-85
2023/12/22 11:43:28;;;;;;;235.00;71.30;;;;;;;3.44;78.88;96730.91;131345;1256;107559;-84
2023/12/22 11:46:34;;;;;;;225.60;73.50;;;;;;;3.52;78.75;96726.53;131342;1257;107710;-86
2023/12/22 11:49:40;;;;;;;408.40;156.10;;;;;;;3.65;78.29;96723.21;131295;1259;108678;-89
2023/12/22 11:52:46;;;;;;;191.30;75.50;;;;;;;3.78;78.82;96723.96;130959;1257;106646;-85
2023/12/22 11:56:08;;;;;;;86.40;38.60;;;;;;;3.95;78.33;96715.75;130981;1256;107559;-93
2023/12/22 11:59:17;;;;;;;47.90;23.00;;;;;;;4.01;78.13;96705.25;131051;1256;105892;-85
2023/12/22 12:02:23;;;;;;;54.10;25.70;;;;;;;3.98;77.74;96698.80;130803;1260;105810;-87
2023/12/22 12:05:29;;;;;;;86.20;39.80;;;;;;;3.88;76.97;96695.19;130902;1257;107343;-85
2023/12/22 12:08:35;;;;;;;33.50;17.30;;;;;;;3.82;77.85;96692.46;130879;1259;106675;-82
2023/12/22 12:12:12;;;;;;;82.40;43.00;;;;;;;3.79;77.42;96697.09;130839;1260;106662;-82
2023/12/22 12:15:24;;;;;;;97.40;49.80;;;;;;;3.66;77.97;96672.61;130933;1258;108615;-85
2023/12/22 12:18:32;;;;;;;10.50;5.00;;;;;;;3.67;78.15;96679.96;130892;1256;106549;-88
2023/12/22 12:21:42;;;;;;;13.20;5.90;;;;;;;3.53;78.44;96684.84;130957;1260;107607;-90
2023/12/22 12:24:47;;;;;;;20.10;11.10;;;;;;;3.38;79.07;96684.78;130908;1256;107335;-82
2023/12/22 12:28:01;;;;;;;8.60;4.40;;;;;;;3.30;79.56;96690.48;131515;1260;108481;-89
2023/12/22 12:31:09;;;;;;;17.80;9.00;;;;;;;3.32;79.81;96702.55;131271;1256;107736;-96
2023/12/22 12:34:17;;;;;;;14.50;6.50;;;;;;;3.39;80.05;96703.06;131454;1256;107459;-83
2023/12/22 12:37:24;;;;;;;7.40;3.00;;;;;;;3.41;79.95;96700.16;133717;1256;107769;-81
2023/12/22 12:40:32;;;;;;;9.80;3.40;;;;;;;3.43;80.22;96699.64;132765;1256;108430;-83
2023/12/22 12:43:42;;;;;;;8.70;3.60;;;;;;;3.39;80.19;96700.19;131715;1260;106904;-81
2023/12/22 12:46:48;;;;;;;4.90;2.60;;;;;;;3.33;80.42;96700.89;131243;1258;110601;-83
2023/12/22 12:50:00;;;;;;;14.90;4.60;;;;;;;3.32;80.68;96701.02;131482;1256;107816;-83
2023/12/22 12:53:08;;;;;;;4.30;1.90;;;;;;;3.33;80.98;96694.48;131125;1260;108211;-83
2023/12/22 12:56:14;;;;;;;5.10;2.60;;;;;;;3.40;80.93;96697.76;131318;1257;107868;-84
2023/12/22 12:59:20;;;;;;;70.80;30.40;;;;;;;3.37;80.99;96692.31;131149;1256;108552;-84
2023/12/22 13:02:26;;;;;;;129.00;42.40;;;;;;;3.27;81.51;96703.77;130994;1260;107712;-85
2023/12/22 13:05:33;;;;;;;326.00;97.80;;;;;;;3.19;81.34;96704.77;131027;1255;108708;-85
2023/12/22 13:08:40;;;;;;;275.60;82.10;;;;;;;3.20;81.70;96702.23;131012;1258;107737;-83
2023/12/22 13:11:47;;;;;;;405.60;141.80;;;;;;;3.16;81.79;96698.16;130849;1261;107761;-86
2023/12/22 13:14:52;;;;;;;83.20;33.80;;;;;;;3.08;82.02;96697.27;130866;1256;107677;-84
2023/12/22 13:17:59;;;;;;;141.30;59.80;;;;;;;3.08;82.03;96693.41;130782;1261;106919;-85
2023/12/22 13:21:07;;;;;;;120.50;55.50;;;;;;;3.14;82.09;96699.20;131279;1260;105429;-82
2023/12/22 13:24:15;;;;;;;45.20;24.00;;;;;;;3.15;82.09;96685.98;131016;1260;110042;-83
2023/12/22 13:27:23;;;;;;;33.30;18.40;;;;;;;3.18;81.96;96696.66;130794;1260;108666;-83
2023/12/22 13:30:41;;;;;;;18.50;10.00;;;;;;;3.17;81.87;96688.33;130877;1258;105820;-83
2023/12/22 13:33:48;;;;;;;10.80;4.30;;;;;;;3.18;82.03;96683.46;130679;1261;108671;-82
2023/12/22 13:36:55;;;;;;;11.90;6.40;;;;;;;3.10;81.88;96681.51;130880;1256;107715;-82
2023/12/22 13:40:01;;;;;;;9.30;3.50;;;;;;;3.06;82.25;96681.24;130773;1260;108098;-83
2023/12/22 13:43:08;;;;;;;7.40;3.10;;;;;;;3.03;82.27;96687.02;130694;1260;107622;-83
2023/12/22 13:46:15;;;;;;;8.00;3.90;;;;;;;3.04;82.39;96683.98;130803;1256;106531;-83
2023/12/22 13:49:20;;;;;;;12.70;3.10;;;;;;;3.07;82.26;96680.39;130793;1261;108780;-83
2023/12/22 13:52:32;;;;;;;8.20;2.90;;;;;;;3.10;82.27;96678.15;131017;1255;108663;-85
2023/12/22 13:55:38;;;;;;;6.30;2.50;;;;;;;3.07;82.37;96679.92;130953;1256;106718;-85
2023/12/22 13:58:47;;;;;;;7.20;2.40;;;;;;;3.08;82.35;96681.89;130796;1260;107203;-85
2023/12/22 14:01:53;;;;;;;5.90;2.40;;;;;;;3.06;82.44;96678.80;130810;1257;106812;-82
2023/12/22 14:04:59;;;;;;;7.90;2.50;;;;;;;3.00;82.39;96685.77;130932;1260;107015;-84
2023/12/22 14:08:06;;;;;;;7.80;2.10;;;;;;;2.92;82.48;96696.66;130849;1261;106337;-84
2023/12/22 14:11:12;;;;;;;6.70;2.50;;;;;;;2.91;82.88;96698.73;131140;1260;107527;-83
2023/12/22 14:14:19;;;;;;;9.40;2.50;;;;;;;2.88;82.90;96700.89;130794;1256;105556;-81
2023/12/22 14:17:24;;;;;;;13.30;4.30;;;;;;;2.87;83.01;96711.05;130855;1260;108657;-82
2023/12/22 14:20:30;;;;;;;11.90;5.90;;;;;;;2.82;83.32;96715.31;131035;1256;106829;-81